Time;durP1;ratioP1;P1;durP2;ratioP2;P2;SDS_P1;SDS_P2;PMS_P1;PMS_P2;Temp;Humidity;BMP_temperature;BMP_pressure;BME280_temperature;BME280_humidity;BME280_pressure;Samples;Min_cycle;Max_cycle;Signal;HPM_P1;HPM_P2
2021/01/06 00:00:43;;;;;;;7.40;3.17;;;;;;;26.35;15.68;97647.22;5075136;28;20515;-86
2021/01/06 00:03:11;;;;;;;7.75;3.38;;;;;;;26.48;15.59;97652.78;5075019;28;20040;-86
2021/01/06 00:05:39;;;;;;;6.85;2.65;;;;;;;26.15;15.72;97655.25;5074653;28;20047;-85
2021/01/06 00:08:06;;;;;;;3.97;2.13;;;;;;;25.96;15.97;97654.28;5074944;28;20481;-85
2021/01/06 00:10:32;;;;;;;4.25;1.83;;;;;;;25.84;16.24;97663.56;5075096;28;20064;-85
2021/01/06 00:12:58;;;;;;;3.83;2.45;;;;;;;25.88;15.98;97663.44;5075405;28;20031;-85
2021/01/06 00:15:30;;;;;;;5.82;2.72;;;;;;;26.22;15.87;97657.78;5090678;28;20111;-85
2021/01/06 00:17:57;;;;;;;5.70;2.83;;;;;;;26.80;15.35;97660.00;5084094;28;20392;-85
2021/01/06 00:20:25;;;;;;;6.78;3.22;;;;;;;26.99;15.14;97665.28;5074201;28;20028;-85
2021/01/06 00:22:52;;;;;;;5.72;3.22;;;;;;;26.99;15.17;97667.28;5074918;28;20052;-85
2021/01/06 00:25:26;;;;;;;6.88;3.53;;;;;;;27.05;15.04;97662.66;5074463;28;20103;-85
2021/01/06 00:27:52;;;;;;;8.15;4.13;;;;;;;27.11;15.08;97664.38;5074375;28;20036;-85
2021/01/06 00:30:24;;;;;;;8.30;4.80;;;;;;;27.40;14.82;97669.63;5084362;28;20028;-86
2021/01/06 00:32:50;;;;;;;9.15;4.45;;;;;;;27.61;14.34;97659.53;5094359;28;20045;-85
2021/01/06 00:35:18;;;;;;;8.40;3.90;;;;;;;26.77;15.12;97664.53;5092860;28;20028;-85
2021/01/06 00:37:44;;;;;;;6.03;2.55;;;;;;;26.21;15.79;97658.25;5094629;28;20068;-85
2021/01/06 00:40:10;;;;;;;5.72;2.85;;;;;;;26.25;15.62;97654.06;5089678;28;20037;-85
2021/01/06 00:42:37;;;;;;;6.78;3.08;;;;;;;26.61;15.27;97662.72;5074324;28;20040;-85
2021/01/06 00:45:10;;;;;;;7.70;3.05;;;;;;;26.99;15.16;97675.75;5081865;28;20023;-85
2021/01/06 00:47:36;;;;;;;6.75;3.20;;;;;;;27.34;14.60;97679.94;5087048;28;20071;-85
2021/01/06 00:50:02;;;;;;;8.50;3.65;;;;;;;27.40;14.81;97683.75;5094013;28;20054;-85
2021/01/06 00:52:28;;;;;;;9.25;3.45;;;;;;;27.22;15.00;97686.47;5094030;28;20054;-85
2021/01/06 00:54:55;;;;;;;10.10;3.55;;;;;;;26.94;15.20;97684.81;5094048;28;20037;-85
2021/01/06 00:57:21;;;;;;;6.20;2.53;;;;;;;26.78;15.12;97685.03;5093978;28;20119;-85
2021/01/06 00:59:47;;;;;;;7.90;3.20;;;;;;;26.56;15.47;97687.84;5076140;28;20031;-85
2021/01/06 01:02:13;;;;;;;8.35;4.28;;;;;;;26.90;15.21;97695.44;5093484;28;20044;-85
2021/01/06 01:04:39;;;;;;;10.77;4.25;;;;;;;26.91;14.95;97691.38;5080604;28;20033;-85
2021/01/06 01:07:05;;;;;;;11.13;4.68;;;;;;;27.00;15.23;97694.25;5073810;28;20179;-85
2021/01/06 01:09:32;;;;;;;8.88;3.70;;;;;;;27.16;14.59;97694.00;5055895;28;20037;-85
2021/01/06 01:11:58;;;;;;;6.85;2.72;;;;;;;27.42;14.58;97690.47;5058056;28;20434;-85
2021/01/06 01:14:24;;;;;;;5.70;2.90;;;;;;;27.52;14.50;97688.47;5075901;28;20381;-85
2021/01/06 01:16:51;;;;;;;4.72;2.72;;;;;;;27.40;14.66;97697.84;5091115;28;20485;-85
2021/01/06 01:19:18;;;;;;;5.60;2.40;;;;;;;27.52;14.43;97694.13;5093889;28;20392;-85
2021/01/06 01:21:44;;;;;;;4.53;2.80;;;;;;;26.99;14.91;97690.63;5093113;28;20085;-85
2021/01/06 01:24:10;;;;;;;4.97;2.45;;;;;;;26.88;15.16;97693.09;5093863;28;20036;-85
2021/01/06 01:26:36;;;;;;;4.82;2.40;;;;;;;27.00;14.90;97692.19;5094176;28;20074;-85
2021/01/06 01:29:02;;;;;;;4.97;2.50;;;;;;;27.17;14.90;97701.19;5092473;28;20060;-85
2021/01/06 01:31:34;;;;;;;6.07;2.63;;;;;;;27.27;14.80;97706.41;5093416;28;20043;-85
2021/01/06 01:34:00;;;;;;;6.65;2.95;;;;;;;27.25;14.76;97703.25;5093998;28;20081;-85
2021/01/06 01:36:28;;;;;;;5.90;2.75;;;;;;;27.29;14.61;97701.06;5093891;28;20024;-85
2021/01/06 01:38:54;;;;;;;5.45;2.65;;;;;;;27.28;14.78;97699.50;5078100;28;20060;-86
2021/01/06 01:41:23;;;;;;;10.73;4.60;;;;;;;26.48;15.47;97697.84;5073618;28;20037;-85
2021/01/06 01:43:49;;;;;;;3.90;2.28;;;;;;;25.95;16.05;97696.94;5064351;28;20484;-85
2021/01/06 01:46:46;;;;;;;6.40;2.63;;;;;;;26.17;15.84;97691.34;5073605;28;20028;-85
2021/01/06 01:49:27;;;;;;;8.55;3.58;;;;;;;26.22;15.85;97687.97;5085679;28;20059;-85
2021/01/06 01:52:02;;;;;;;5.03;2.22;;;;;;;26.24;15.51;97688.28;5093027;28;20082;-85
2021/01/06 01:54:31;;;;;;;5.15;1.92;;;;;;;26.83;15.13;97692.91;5082263;28;20503;-85
2021/01/06 01:57:12;;;;;;;5.97;3.05;;;;;;;26.80;15.06;97691.00;5073290;28;20032;-85
2021/01/06 01:59:58;;;;;;;7.70;2.60;;;;;;;26.63;15.39;97693.22;5073537;28;20037;-86
2021/01/06 02:02:46;;;;;;;4.00;2.33;;;;;;;27.11;14.91;97692.56;5055122;28;20053;-86
2021/01/06 02:05:19;;;;;;;4.65;2.65;;;;;;;27.17;14.98;97693.50;5055207;28;20511;-86
2021/01/06 02:08:05;;;;;;;6.60;3.17;;;;;;;27.07;14.79;97693.97;5073809;28;20031;-85
2021/01/06 02:10:34;;;;;;;4.53;1.83;;;;;;;27.11;14.93;97691.78;5072986;28;20044;-85
2021/01/06 02:13:14;;;;;;;5.90;3.00;;;;;;;27.03;14.86;97693.28;5072255;28;20021;-86
2021/01/06 02:16:17;;;;;;;6.93;3.57;;;;;;;26.31;15.62;97680.38;5096845;28;20032;-85
2021/01/06 02:18:43;;;;;;;7.28;3.28;;;;;;;26.14;15.76;97681.03;5093937;28;20105;-86
2021/01/06 02:21:17;;;;;;;8.20;2.97;;;;;;;25.72;16.28;97674.88;5097195;28;20055;-85
2021/01/06 02:23:47;;;;;;;8.88;4.03;;;;;;;25.85;16.13;97676.41;5096142;28;20039;-85
2021/01/06 02:26:13;;;;;;;4.93;2.90;;;;;;;26.22;15.68;97677.50;5079066;28;20040;-85
2021/01/06 02:28:39;;;;;;;5.68;2.13;;;;;;;26.89;15.10;97683.38;5096492;28;20411;-85
2021/01/06 02:31:05;;;;;;;4.93;2.38;;;;;;;27.33;14.67;97687.63;5096685;28;20032;-86
2021/01/06 02:33:33;;;;;;;5.20;2.50;;;;;;;27.60;14.35;97686.13;5096972;28;20024;-86
2021/01/06 02:35:59;;;;;;;7.93;3.10;;;;;;;27.72;14.51;97677.56;5078774;28;20387;-85
2021/01/06 02:38:25;;;;;;;6.28;2.67;;;;;;;27.78;14.21;97684.13;5078331;28;20028;-85
2021/01/06 02:40:56;;;;;;;6.18;2.75;;;;;;;27.69;14.41;97688.97;5096290;28;20058;-85
2021/01/06 02:43:24;;;;;;;4.20;2.22;;;;;;;27.61;14.51;97690.53;5096728;28;20024;-85
2021/01/06 02:45:51;;;;;;;4.45;2.40;;;;;;;27.50;14.55;97682.50;5089756;28;20183;-85
2021/01/06 02:48:18;;;;;;;8.65;2.80;;;;;;;27.68;14.53;97693.81;5058324;28;20407;-85
2021/01/06 02:50:48;;;;;;;6.15;2.78;;;;;;;27.80;14.65;97692.13;5058789;28;20036;-85
2021/01/06 02:53:20;;;;;;;5.65;2.38;;;;;;;27.58;14.65;97688.66;5094467;28;20529;-85
2021/01/06 02:55:48;;;;;;;5.75;3.05;;;;;;;27.07;15.15;97693.97;5095024;28;20036;-85
2021/01/06 02:58:17;;;;;;;6.82;2.88;;;;;;;26.83;15.13;97688.06;5076607;28;20020;-86
2021/01/06 03:00:43;;;;;;;7.45;3.33;;;;;;;26.59;15.32;97692.56;5076389;28;20500;-86
2021/01/06 03:03:12;;;;;;;8.02;4.07;;;;;;;26.09;15.86;97683.13;5083878;28;20036;-86
2021/01/06 03:05:48;;;;;;;5.22;2.90;;;;;;;25.65;16.16;97686.38;5079721;28;20033;-86
2021/01/06 03:08:17;;;;;;;9.27;3.70;;;;;;;25.30;16.75;97683.47;5079628;28;20082;-86
2021/01/06 03:10:44;;;;;;;6.05;2.70;;;;;;;25.38;16.49;97687.63;5090098;28;20090;-86
2021/01/06 03:13:10;;;;;;;9.95;4.00;;;;;;;25.53;16.34;97681.56;5093994;28;20055;-85
2021/01/06 03:15:37;;;;;;;6.47;2.85;;;;;;;25.65;16.45;97675.13;5095935;28;20032;-85
2021/01/06 03:18:04;;;;;;;5.78;2.97;;;;;;;25.97;15.91;97674.78;5095161;28;20032;-86
2021/01/06 03:20:40;;;;;;;6.53;2.95;;;;;;;26.46;15.49;97680.63;5083954;28;20032;-86
2021/01/06 03:23:18;;;;;;;6.32;3.03;;;;;;;26.68;15.49;97675.72;5063886;28;20039;-86
2021/01/06 03:25:44;;;;;;;8.52;3.58;;;;;;;27.00;15.16;97678.09;5088685;28;20020;-86
2021/01/06 03:28:13;;;;;;;10.73;4.90;;;;;;;26.46;15.30;97667.34;5075303;28;20024;-85
2021/01/06 03:30:40;;;;;;;8.75;4.15;;;;;;;26.01;15.88;97666.97;5078104;28;20041;-85
2021/01/06 03:33:17;;;;;;;5.72;2.88;;;;;;;25.89;16.02;97667.81;5096347;28;20046;-85
2021/01/06 03:35:50;;;;;;;4.47;2.40;;;;;;;25.96;15.84;97661.94;5096116;28;20032;-86
2021/01/06 03:38:16;;;;;;;9.07;4.47;;;;;;;25.38;16.50;97656.72;5077463;28;20029;-85
2021/01/06 03:40:45;;;;;;;6.47;4.10;;;;;;;25.58;16.49;97659.25;5081396;28;20055;-85
2021/01/06 03:43:13;;;;;;;10.63;4.13;;;;;;;25.68;16.19;97658.13;5095370;28;20381;-85
2021/01/06 03:45:43;;;;;;;11.30;5.07;;;;;;;25.89;15.96;97657.34;5077474;28;20055;-85
2021/01/06 03:48:33;;;;;;;8.10;3.55;;;;;;;25.79;16.16;97657.75;5064205;28;20043;-85
2021/01/06 03:51:13;;;;;;;7.37;4.10;;;;;;;26.16;15.65;97670.91;5057193;28;20404;-85
2021/01/06 03:53:43;;;;;;;10.73;4.45;;;;;;;26.14;15.61;97664.16;5080046;28;20038;-85
2021/01/06 03:56:25;;;;;;;8.57;4.43;;;;;;;25.84;15.98;97659.97;5095703;28;20403;-85
2021/01/06 03:59:01;;;;;;;9.65;4.95;;;;;;;26.02;15.94;97660.88;5095658;28;20032;-85
2021/01/06 04:01:46;;;;;;;9.57;4.90;;;;;;;25.77;16.06;97655.38;5095438;28;20048;-85
2021/01/06 04:04:25;;;;;;;12.95;4.97;;;;;;;25.21;16.73;97660.88;5077111;28;20024;-85
2021/01/06 04:06:54;;;;;;;12.23;5.78;;;;;;;24.98;16.95;97654.84;5095216;28;20024;-85
2021/01/06 04:09:36;;;;;;;12.35;6.03;;;;;;;24.74;17.13;97655.16;5095090;28;20020;-85
2021/01/06 04:12:13;;;;;;;11.55;5.20;;;;;;;24.55;17.39;97646.97;5093076;28;20043;-85
2021/01/06 04:14:40;;;;;;;7.30;4.05;;;;;;;24.56;17.32;97645.72;5095331;28;20030;-85
2021/01/06 04:17:26;;;;;;;11.85;5.82;;;;;;;24.23;17.36;97644.31;5074591;28;20037;-86
2021/01/06 04:19:57;;;;;;;9.77;4.47;;;;;;;24.69;17.04;97647.28;5074920;28;20071;-86
2021/01/06 04:22:47;;;;;;;4.95;2.47;;;;;;;25.05;16.53;97651.81;5089435;28;20118;-86
2021/01/06 04:25:27;;;;;;;7.53;4.07;;;;;;;25.50;16.05;97649.50;5094916;28;20031;-86
2021/01/06 04:28:01;;;;;;;9.17;5.50;;;;;;;25.60;15.92;97650.38;5088020;28;20108;-86
2021/01/06 04:30:37;;;;;;;10.50;6.30;;;;;;;24.75;16.38;97641.91;5072357;28;20322;-86
2021/01/06 04:33:09;;;;;;;14.23;6.35;;;;;;;24.29;17.21;97653.75;5060707;28;20020;-85
2021/01/06 04:35:35;;;;;;;12.13;5.63;;;;;;;24.23;17.02;97642.28;5090490;28;20036;-85
2021/01/06 04:38:02;;;;;;;11.50;5.60;;;;;;;24.05;17.20;97639.19;5076319;28;20059;-86
2021/01/06 04:40:40;;;;;;;10.88;4.95;;;;;;;24.13;17.18;97645.44;5091600;28;20056;-86
2021/01/06 04:43:22;;;;;;;10.90;5.00;;;;;;;24.65;16.13;97645.81;5057141;28;20093;-85
2021/01/06 04:46:02;;;;;;;11.43;4.88;;;;;;;25.22;15.50;97647.63;5076253;28;20037;-85
2021/01/06 04:49:08;;;;;;;12.03;5.30;;;;;;;25.48;15.33;97648.41;5089471;28;20043;-85
2021/01/06 04:52:13;;;;;;;14.30;5.15;;;;;;;25.74;15.24;97652.69;5094692;28;20680;-85
2021/01/06 04:55:14;;;;;;;9.90;4.50;;;;;;;25.80;14.90;97651.66;5088869;28;20085;-85
2021/01/06 04:57:49;;;;;;;7.93;4.63;;;;;;;25.49;15.18;97655.56;5070412;28;20032;-85
2021/01/06 05:00:26;;;;;;;12.95;6.72;;;;;;;24.89;16.03;97657.53;5067523;28;20521;-86
2021/01/06 05:03:22;;;;;;;13.25;5.78;;;;;;;24.75;15.75;97664.38;5087501;28;20043;-85
2021/01/06 05:06:22;;;;;;;17.42;8.00;;;;;;;24.59;16.14;97662.47;5091259;28;20571;-85
2021/01/06 05:08:52;;;;;;;21.08;8.35;;;;;;;23.34;17.32;97663.53;5073794;28;20044;-85
2021/01/06 05:11:40;;;;;;;23.75;10.73;;;;;;;22.92;17.93;97661.75;5088296;28;20078;-85
2021/01/06 05:14:11;;;;;;;16.20;8.07;;;;;;;21.84;19.02;97665.72;5074728;28;20195;-85
2021/01/06 05:16:43;;;;;;;15.70;7.75;;;;;;;20.98;20.02;97657.19;5081679;28;20055;-85
2021/01/06 05:19:22;;;;;;;13.57;6.93;;;;;;;21.89;18.90;97656.81;5091612;28;20035;-85
2021/01/06 05:21:49;;;;;;;15.60;6.78;;;;;;;22.73;18.33;97656.25;5087370;28;20079;-85
2021/01/06 05:24:46;;;;;;;12.65;6.28;;;;;;;23.14;17.56;97659.25;5083695;28;20025;-85
2021/01/06 05:27:12;;;;;;;13.88;6.38;;;;;;;23.74;16.81;97646.47;5049126;28;20044;-85
2021/01/06 05:30:05;;;;;;;11.30;5.75;;;;;;;24.12;16.23;97653.03;5071771;28;20111;-85
2021/01/06 05:32:35;;;;;;;10.77;5.80;;;;;;;24.25;16.25;97648.25;5089042;28;20058;-85
2021/01/06 05:35:25;;;;;;;12.90;6.63;;;;;;;23.60;16.80;97644.84;5092961;28;20036;-85
2021/01/06 05:37:58;;;;;;;9.60;4.90;;;;;;;23.98;16.04;97640.19;5083552;28;20028;-85
2021/01/06 05:40:25;;;;;;;11.02;5.40;;;;;;;24.49;15.90;97643.13;5093052;28;20519;-85
2021/01/06 05:43:04;;;;;;;19.48;7.65;;;;;;;24.68;15.43;97647.75;5091083;28;20028;-85
2021/01/06 05:45:54;;;;;;;11.45;5.90;;;;;;;24.53;15.74;97653.00;5073605;28;20051;-85
2021/01/06 05:48:50;;;;;;;16.33;8.15;;;;;;;24.07;16.24;97650.00;5073169;28;20025;-85
2021/01/06 05:51:24;;;;;;;14.77;7.82;;;;;;;24.01;16.45;97647.69;5055400;28;20435;-85
2021/01/06 05:54:19;;;;;;;14.35;6.03;;;;;;;24.22;15.53;97651.97;5086742;28;20079;-85
2021/01/06 05:57:07;;;;;;;15.05;6.70;;;;;;;24.45;15.87;97653.69;5074470;28;20122;-85
2021/01/06 05:59:42;;;;;;;18.00;8.00;;;;;;;24.65;15.59;97649.44;5079845;28;20037;-85
2021/01/06 06:02:08;;;;;;;17.65;7.75;;;;;;;24.14;16.27;97649.78;5073594;28;20040;-85
2021/01/06 06:05:06;;;;;;;13.15;6.85;;;;;;;23.60;16.66;97647.66;5091696;28;20036;-85
2021/01/06 06:07:56;;;;;;;15.63;6.97;;;;;;;23.83;16.06;97647.41;5074826;28;20090;-85
2021/01/06 06:10:51;;;;;;;9.30;4.82;;;;;;;24.14;15.64;97656.19;5087328;28;20034;-85
2021/01/06 06:13:35;;;;;;;9.10;4.28;;;;;;;24.24;15.82;97652.28;5070030;28;20033;-85
2021/01/06 06:16:32;;;;;;;12.07;4.97;;;;;;;24.52;15.62;97651.44;5076005;28;20029;-85
2021/01/06 06:19:05;;;;;;;8.02;4.60;;;;;;;24.86;15.09;97664.84;5083433;28;20032;-85
2021/01/06 06:21:41;;;;;;;8.43;4.63;;;;;;;24.92;14.92;97667.88;5092445;28;20028;-85
2021/01/06 06:24:37;;;;;;;15.65;7.20;;;;;;;24.70;15.19;97662.13;5074810;28;20111;-85
2021/01/06 06:27:25;;;;;;;15.75;6.63;;;;;;;24.59;15.21;97678.50;5092347;28;20020;-85
2021/01/06 06:30:09;;;;;;;11.73;6.80;;;;;;;22.87;17.18;97667.88;5074404;28;20116;-85
2021/01/06 06:32:36;;;;;;;11.32;5.80;;;;;;;22.61;17.83;97671.69;5074411;28;20036;-85
2021/01/06 06:35:17;;;;;;;11.77;6.45;;;;;;;23.33;16.86;97670.34;5092734;28;20055;-85
2021/01/06 06:38:03;;;;;;;16.85;6.53;;;;;;;23.36;16.86;97663.88;5080418;28;20036;-85
2021/01/06 06:40:56;;;;;;;11.40;5.53;;;;;;;22.98;17.25;97668.44;5092564;28;20491;-85
2021/01/06 06:43:49;;;;;;;10.65;3.72;;;;;;;23.64;16.43;97665.16;5085705;28;20111;-84
2021/01/06 06:46:30;;;;;;;11.23;4.60;;;;;;;23.13;16.49;97666.06;5080346;28;20032;-85
2021/01/06 06:49:20;;;;;;;7.93;3.97;;;;;;;22.96;16.75;97672.88;5060664;28;20086;-84
2021/01/06 06:52:08;;;;;;;9.65;4.07;;;;;;;23.67;15.94;97660.69;5069890;28;20555;-85
2021/01/06 06:54:56;;;;;;;10.98;4.30;;;;;;;24.19;15.42;97654.84;5070755;28;20052;-84
2021/01/06 06:57:50;;;;;;;13.65;5.72;;;;;;;24.48;14.98;97656.38;5072807;28;20476;-84
2021/01/06 07:00:26;;;;;;;12.05;5.35;;;;;;;24.69;15.06;97660.56;5086374;28;20111;-85
2021/01/06 07:02:57;;;;;;;11.55;5.05;;;;;;;23.60;15.99;97652.47;5095229;28;20058;-83
2021/01/06 07:05:36;;;;;;;11.13;5.07;;;;;;;23.16;16.00;97659.59;5095652;28;20028;-85
2021/01/06 07:08:17;;;;;;;10.98;3.70;;;;;;;23.45;15.79;97659.69;5087233;28;20031;-85
2021/01/06 07:11:03;;;;;;;8.35;3.58;;;;;;;23.62;15.66;97655.63;5088691;28;20024;-85
2021/01/06 07:13:32;;;;;;;8.68;3.92;;;;;;;23.93;15.44;97663.16;5094458;28;20040;-85
2021/01/06 07:16:17;;;;;;;15.02;5.78;;;;;;;23.68;15.86;97665.88;5083172;28;20025;-85
2021/01/06 07:18:49;;;;;;;10.70;5.35;;;;;;;23.95;15.67;97666.31;5091295;28;20032;-85
2021/01/06 07:21:22;;;;;;;18.95;8.48;;;;;;;23.35;16.85;97661.53;5095831;28;20117;-86
2021/01/06 07:24:09;;;;;;;19.58;7.82;;;;;;;22.17;18.28;97673.00;5096129;28;20432;-86
2021/01/06 07:27:00;;;;;;;17.83;7.97;;;;;;;22.07;18.43;97670.44;5096188;28;20028;-86
2021/01/06 07:29:33;;;;;;;20.55;8.57;;;;;;;21.91;19.04;97673.94;5086047;28;20036;-86
2021/01/06 07:32:08;;;;;;;15.50;7.35;;;;;;;22.01;18.90;97668.13;5083185;28;20092;-86
2021/01/06 07:34:51;;;;;;;12.20;5.55;;;;;;;23.11;17.77;97666.50;5086917;28;20388;-85
2021/01/06 07:37:46;;;;;;;15.15;5.40;;;;;;;23.43;17.59;97679.75;5072334;28;20036;-85
2021/01/06 07:40:20;;;;;;;20.35;9.35;;;;;;;22.69;18.37;97678.69;5079235;28;20400;-85
2021/01/06 07:42:52;;;;;;;21.95;9.25;;;;;;;22.95;18.23;97683.28;5090589;28;20040;-85
2021/01/06 07:45:20;;;;;;;16.58;6.60;;;;;;;23.83;17.24;97685.88;5082897;28;20111;-86
2021/01/06 07:48:13;;;;;;;15.20;6.60;;;;;;;24.21;16.94;97675.63;5089196;28;20047;-86
2021/01/06 07:50:42;;;;;;;15.82;7.75;;;;;;;23.24;17.96;97670.16;5094401;28;20507;-86
2021/01/06 07:53:13;;;;;;;21.85;11.18;;;;;;;22.24;18.71;97667.25;5087060;28;20099;-86
2021/01/06 07:55:56;;;;;;;15.48;7.82;;;;;;;22.76;18.43;97669.34;5068535;28;20040;-86
2021/01/06 07:58:31;;;;;;;12.20;5.70;;;;;;;23.44;17.56;97670.09;5089057;28;20500;-86
2021/01/06 08:01:32;;;;;;;15.23;7.25;;;;;;;22.48;18.72;97663.16;5087823;28;20032;-86
2021/01/06 08:04:13;;;;;;;18.63;7.47;;;;;;;22.82;18.48;97659.22;5075773;28;20036;-86
2021/01/06 08:06:51;;;;;;;25.33;10.82;;;;;;;21.85;19.28;97653.28;5100026;28;20056;-86
2021/01/06 08:09:36;;;;;;;22.27;10.95;;;;;;;20.86;20.69;97655.00;5095127;28;20053;-86
2021/01/06 08:12:27;;;;;;;17.20;7.25;;;;;;;22.55;18.97;97653.81;5090289;28;20115;-86
2021/01/06 08:15:05;;;;;;;;;;;;;;;21.50;20.11;97640.75;5100793;28;20077;-86
2021/01/06 08:18:03;;;;;;;19.25;8.10;;;;;;;22.45;19.15;97644.44;5099067;28;19919;-86
2021/01/06 08:20:52;;;;;;;14.02;6.22;;;;;;;23.67;17.70;97655.88;5042936;28;20077;-86
2021/01/06 08:23:28;;;;;;;13.25;6.20;;;;;;;24.55;16.99;97669.41;5083655;28;20035;-86
2021/01/06 08:26:12;;;;;;;13.57;6.45;;;;;;;25.23;16.35;97663.25;5088526;28;20027;-86
2021/01/06 08:28:39;;;;;;;15.38;6.90;;;;;;;25.62;15.77;97647.91;5092855;28;20028;-86
2021/01/06 08:31:13;;;;;;;11.40;5.38;;;;;;;24.53;16.88;97650.19;5108761;28;20035;-86
2021/01/06 08:34:06;;;;;;;14.00;6.45;;;;;;;24.48;16.88;97655.59;5068914;28;20052;-85
2021/01/06 08:36:38;;;;;;;13.82;6.57;;;;;;;24.70;16.82;97664.94;5090197;28;20059;-86
2021/01/06 08:39:19;;;;;;;13.77;7.25;;;;;;;25.02;16.77;97669.59;5093071;28;20051;-86
2021/01/06 08:41:46;;;;;;;24.60;10.60;;;;;;;24.28;17.44;97669.00;5093081;28;20059;-85
2021/01/06 08:44:55;;;;;;;12.45;6.68;;;;;;;24.40;17.50;97668.25;5089766;28;20480;-86
2021/01/06 08:47:30;;;;;;;18.25;7.75;;;;;;;23.88;17.81;97663.69;5088991;28;20028;-86
2021/01/06 08:50:10;;;;;;;18.77;9.70;;;;;;;23.52;18.23;97659.50;5087801;28;20139;-86
2021/01/06 08:52:39;;;;;;;26.55;11.50;;;;;;;20.70;21.23;97657.63;5097291;28;20089;-86
2021/01/06 08:55:18;;;;;;;25.38;10.98;;;;;;;20.22;22.10;97649.56;5092593;28;20062;-86
2021/01/06 08:57:44;;;;;;;23.20;10.60;;;;;;;20.98;21.37;97651.59;5085412;28;20085;-86
2021/01/06 09:00:25;;;;;;;23.30;11.30;;;;;;;21.09;21.16;97652.28;5074585;28;20028;-86
2021/01/06 09:02:57;;;;;;;17.27;8.70;;;;;;;22.68;19.55;97647.13;5068276;28;20066;-86
2021/01/06 09:05:44;;;;;;;21.83;10.48;;;;;;;22.34;19.64;97641.09;5092057;28;20028;-87
2021/01/06 09:08:18;;;;;;;23.15;11.25;;;;;;;23.29;18.65;97635.25;5094324;28;20067;-86
2021/01/06 09:11:09;;;;;;;21.83;10.30;;;;;;;23.01;19.00;97627.56;5090284;28;20395;-86
2021/01/06 09:13:43;;;;;;;25.42;11.68;;;;;;;21.91;20.44;97623.66;5091945;28;20089;-86
2021/01/06 09:16:12;;;;;;;21.20;11.00;;;;;;;22.40;19.90;97630.97;5094599;28;20028;-86
2021/01/06 09:18:48;;;;;;;15.75;5.50;;;;;;;23.46;18.69;97624.81;5086031;28;20114;-86
2021/01/06 09:21:20;;;;;;;12.02;5.03;;;;;;;24.39;17.88;97625.38;5093897;28;20040;-86
2021/01/06 09:23:51;;;;;;;15.95;8.00;;;;;;;24.38;17.89;97625.84;5095543;28;20036;-86
2021/01/06 09:26:23;;;;;;;19.35;9.57;;;;;;;23.95;18.40;97615.03;5086473;28;20024;-87
2021/01/06 09:29:08;;;;;;;19.60;9.80;;;;;;;24.19;18.42;97621.97;5092257;28;20040;-87
2021/01/06 09:31:40;;;;;;;16.05;7.95;;;;;;;24.88;17.73;97619.47;5084065;28;20115;-86
2021/01/06 09:34:07;;;;;;;19.92;10.25;;;;;;;25.09;17.32;97619.56;5085529;28;20093;-89
2021/01/06 09:36:35;;;;;;;17.92;9.75;;;;;;;24.72;17.60;97620.34;5089927;28;20515;-87
2021/01/06 09:39:05;;;;;;;19.00;9.35;;;;;;;24.85;17.77;97618.34;5086202;28;20065;-87
2021/01/06 09:41:33;;;;;;;23.35;11.32;;;;;;;25.09;17.46;97619.56;5079920;28;20122;-85
2021/01/06 09:44:06;;;;;;;26.35;11.85;;;;;;;25.22;17.13;97617.53;5092742;28;20131;-85
2021/01/06 09:46:50;;;;;;;18.80;9.38;;;;;;;24.85;17.38;97615.56;5091407;28;20044;-85
2021/01/06 09:49:31;;;;;;;31.92;15.48;;;;;;;24.19;18.37;97607.16;5090497;28;20033;-85
2021/01/06 09:51:59;;;;;;;;;;;;;;;24.18;18.37;97608.41;5103042;28;20117;-85
2021/01/06 09:54:26;;;;;;;27.30;12.55;;;;;;;24.03;18.57;97599.59;5095424;28;19916;-85
2021/01/06 09:56:53;;;;;;;30.25;15.05;;;;;;;22.52;19.82;97599.50;5103461;28;20387;-85
2021/01/06 09:59:23;;;;;;;28.88;14.57;;;;;;;22.07;20.61;97580.97;5061125;28;20036;-85
2021/01/06 10:02:01;;;;;;;27.63;12.90;;;;;;;22.40;20.49;97579.84;5072706;28;20044;-85
2021/01/06 10:04:36;;;;;;;19.70;9.73;;;;;;;23.05;19.84;97577.88;5092065;28;20438;-85
2021/01/06 10:07:35;;;;;;;14.93;7.82;;;;;;;23.87;19.35;97583.63;5092763;28;20031;-85
2021/01/06 10:10:11;;;;;;;18.70;9.50;;;;;;;24.82;17.92;97573.53;5086532;28;20040;-85
2021/01/06 10:13:12;;;;;;;27.38;13.85;;;;;;;24.05;18.76;97558.66;5091748;28;20035;-84
2021/01/06 10:16:03;;;;;;;24.65;11.82;;;;;;;24.40;18.89;97556.81;5074065;28;20170;-84
2021/01/06 10:18:48;;;;;;;;;;;;;;;23.89;19.19;97541.13;5086982;28;20105;-84
2021/01/06 10:21:17;;;;;;;26.63;12.32;;;;;;;25.03;18.35;97537.09;5074589;28;19920;-84
2021/01/06 10:24:01;;;;;;;21.02;11.27;;;;;;;25.47;18.01;97537.19;5092280;28;20070;-84
2021/01/06 10:26:56;;;;;;;23.77;10.95;;;;;;;25.65;17.54;97542.97;5090161;28;20025;-85
2021/01/06 10:29:40;;;;;;;22.70;11.70;;;;;;;25.17;17.98;97530.19;5080624;28;20043;-85
2021/01/06 10:32:09;;;;;;;21.15;11.75;;;;;;;24.38;18.68;97533.22;5092714;28;20036;-85
2021/01/06 10:34:45;;;;;;;21.50;10.55;;;;;;;25.36;17.97;97521.47;5093785;28;20076;-86
2021/01/06 10:37:29;;;;;;;19.10;9.05;;;;;;;26.28;17.61;97529.28;5079486;28;20542;-86
2021/01/06 10:40:17;;;;;;;27.90;13.05;;;;;;;26.73;16.76;97528.66;5085210;28;20039;-85
2021/01/06 10:42:43;;;;;;;39.17;19.63;;;;;;;24.55;19.08;97498.22;5062319;28;20036;-86
2021/01/06 10:45:37;;;;;;;37.42;17.23;;;;;;;23.15;21.15;97490.75;5091503;28;20059;-85
2021/01/06 10:48:03;;;;;;;24.42;10.90;;;;;;;24.22;20.21;97494.88;5084844;28;20024;-85
2021/01/06 10:50:29;;;;;;;23.52;11.40;;;;;;;23.73;20.19;97490.75;5092325;28;20093;-86
2021/01/06 10:53:01;;;;;;;20.38;9.90;;;;;;;24.43;19.53;97493.38;5077910;28;20075;-85
2021/01/06 10:55:48;;;;;;;17.15;7.82;;;;;;;25.85;18.60;97492.78;5096088;28;20539;-85
2021/01/06 10:58:34;;;;;;;22.10;11.15;;;;;;;26.44;17.69;97495.25;5082926;28;20032;-85
2021/01/06 11:01:10;;;;;;;24.52;12.45;;;;;;;25.62;18.49;97485.63;5061888;28;20125;-85
2021/01/06 11:04:00;;;;;;;22.48;11.45;;;;;;;23.92;19.71;97479.31;5073350;28;20041;-85
2021/01/06 11:06:33;;;;;;;25.77;11.50;;;;;;;23.80;20.24;97473.72;5088444;28;20050;-85
2021/01/06 11:09:18;;;;;;;21.38;11.32;;;;;;;24.69;19.27;97476.03;5109474;28;20032;-85
2021/01/06 11:11:44;;;;;;;20.08;10.80;;;;;;;25.32;18.59;97461.78;5087932;28;20053;-86
2021/01/06 11:14:29;;;;;;;26.23;14.60;;;;;;;23.02;20.51;97455.53;5094196;28;20032;-86
2021/01/06 11:17:07;;;;;;;29.98;15.70;;;;;;;19.93;24.74;97422.63;5094632;28;20040;-86
2021/01/06 11:19:45;;;;;;;26.33;12.18;;;;;;;20.98;23.80;97431.13;5097618;28;20069;-86
2021/01/06 11:22:39;;;;;;;20.73;10.00;;;;;;;23.40;21.00;97430.47;5093678;28;20047;-86
2021/01/06 11:25:32;;;;;;;20.40;10.82;;;;;;;25.53;18.57;97449.03;5088783;28;20119;-86
2021/01/06 11:28:04;;;;;;;23.15;12.20;;;;;;;26.46;17.34;97447.75;5077534;28;20036;-86
2021/01/06 11:30:36;;;;;;;22.80;12.25;;;;;;;26.61;17.61;97445.88;5082985;28;20039;-86
2021/01/06 11:33:14;;;;;;;21.70;9.88;;;;;;;26.55;17.60;97444.16;5091224;28;20032;-86
2021/01/06 11:36:06;;;;;;;20.27;9.80;;;;;;;26.50;17.72;97445.56;5086886;28;20029;-85
2021/01/06 11:38:54;;;;;;;20.15;10.65;;;;;;;26.77;17.41;97438.44;5041064;28;20404;-86
2021/01/06 11:41:26;;;;;;;24.58;11.48;;;;;;;27.30;17.17;97437.66;5093108;28;20050;-86
2021/01/06 11:44:19;;;;;;;21.40;10.57;;;;;;;27.40;16.44;97436.41;5074991;28;20036;-86
2021/01/06 11:47:15;;;;;;;18.80;9.63;;;;;;;27.19;16.44;97428.13;5080194;28;20063;-86
2021/01/06 11:49:42;;;;;;;22.40;10.55;;;;;;;26.71;17.38;97424.16;5102591;28;20161;-86
2021/01/06 11:52:23;;;;;;;19.17;11.00;;;;;;;25.78;17.93;97422.75;5094526;28;20383;-86
2021/01/06 11:54:52;;;;;;;24.98;13.55;;;;;;;;;;5091128;28;20032;-86
2021/01/06 11:57:35;;;;;;;22.05;11.13;;;;;;;24.62;19.39;97425.00;5093201;28;20484;-85
2021/01/06 12:00:23;;;;;;;23.83;12.63;;;;;;;24.35;19.41;97419.88;5081327;28;20028;-87
2021/01/06 12:03:07;;;;;;;23.70;12.38;;;;;;;24.47;19.30;97419.06;5087462;28;20114;-86
2021/01/06 12:05:53;;;;;;;21.85;12.23;;;;;;;24.42;19.24;97407.63;5087511;28;20491;-87
2021/01/06 12:08:23;;;;;;;15.52;9.45;;;;;;;24.98;18.81;97405.66;5093928;28;20111;-86
2021/01/06 12:11:15;;;;;;;20.38;9.85;;;;;;;25.20;18.74;97408.50;5064616;28;20029;-86
2021/01/06 12:13:55;;;;;;;;;;;;;;;25.20;18.29;97402.88;5089516;28;20494;-86